Terminal Aerodrome Forecast
Issued by NWS

Home | Current Version | Previous Version | Text Only | Print | Product List | Glossary On
Versions: 1 2 3 4 5 6 7 8 9 10 11 12 13
000
FTUS45 KLKN 271120
TAFEKO
TAF
KEKO 271120Z 2712/2812 25006KT P6SM VCFG BKN040 OVC060
     FM271900 27011KT P6SM -TSRA OVC050CB
     FM280400 VRB03KT P6SM -SHRA BKN050=

USA.gov is the U.S. government's official web portal to all federal, state and local government web resources and services.